Time;durP1;ratioP1;P1;durP2;ratioP2;P2;SDS_P1;SDS_P2;PMS_P1;PMS_P2;Temp;Humidity;BMP_temperature;BMP_pressure;BME280_temperature;BME280_humidity;BME280_pressure;Samples;Min_cycle;Max_cycle;Signal;HPM_P1;HPM_P2
2021/12/07 00:02:05;;;;;;;60.83;39.60;;;;;;;7.85;89.69;99472.11;1704822;82;21035;-71
2021/12/07 00:04:32;;;;;;;69.45;42.20;;;;;;;7.83;89.72;99482.77;1697924;83;21410;-71
2021/12/07 00:06:58;;;;;;;61.98;41.50;;;;;;;7.83;89.72;99485.39;1734866;80;21796;-71
2021/12/07 00:09:24;;;;;;;78.85;48.30;;;;;;;7.84;89.72;99483.59;1710580;84;20965;-71
2021/12/07 00:11:51;;;;;;;77.08;46.73;;;;;;;7.83;89.76;99488.02;1731059;81;20928;-71
2021/12/07 00:14:23;;;;;;;77.32;48.28;;;;;;;7.84;89.77;99488.38;1739542;82;21004;-71
2021/12/07 00:16:46;;;;;;;83.87;55.20;;;;;;;7.85;89.77;99493.15;1702577;82;21090;-71
2021/12/07 00:19:12;;;;;;;92.15;62.17;;;;;;;7.87;89.82;99493.84;1724999;81;21792;-71
2021/12/07 00:21:40;;;;;;;69.35;45.10;;;;;;;7.90;89.86;99494.42;1706741;83;21049;-71
2021/12/07 00:24:07;;;;;;;66.80;45.35;;;;;;;7.92;89.89;99487.27;1734175;82;21467;-70
2021/12/07 00:26:34;;;;;;;64.58;42.78;;;;;;;7.96;89.92;99487.35;1699356;83;20987;-70
2021/12/07 00:29:02;;;;;;;49.53;32.53;;;;;;;8.01;90.00;99487.82;1766848;80;20956;-70
2021/12/07 00:31:38;;;;;;;53.23;32.28;;;;;;;8.06;90.04;99483.96;1767126;80;21847;-70
2021/12/07 00:35:16;;;;;;;79.25;44.90;;;;;;;8.09;90.06;99483.22;1780588;80;20984;-70
2021/12/07 00:36:44;;;;;;;50.05;30.82;;;;;;;8.11;90.06;99481.31;1742529;81;21012;-70
2021/12/07 00:39:09;;;;;;;45.03;26.87;;;;;;;8.14;90.10;99471.02;1735962;81;21012;-70
2021/12/07 00:41:36;;;;;;;36.30;24.45;;;;;;;8.17;90.13;99472.06;1731096;82;21071;-70
2021/12/07 00:44:03;;;;;;;41.63;28.20;;;;;;;8.21;90.16;99476.12;1721844;82;21809;-70
2021/12/07 00:46:30;;;;;;;45.38;30.62;;;;;;;8.22;90.16;99477.30;1712165;82;21505;-70
2021/12/07 00:48:56;;;;;;;40.63;26.00;;;;;;;8.24;90.15;99481.95;1727927;82;21064;-70
2021/12/07 00:51:23;;;;;;;37.98;26.55;;;;;;;8.26;90.10;99477.87;1732714;82;20969;-71
2021/12/07 00:53:50;;;;;;;36.15;24.20;;;;;;;8.25;90.09;99465.68;1715367;82;21000;-71
2021/12/07 00:56:17;;;;;;;37.10;23.60;;;;;;;8.27;90.07;99473.78;1729788;81;23186;-70
2021/12/07 00:58:44;;;;;;;35.35;23.65;;;;;;;8.29;90.04;99473.66;1746013;82;21398;-70
2021/12/07 01:01:13;;;;;;;61.95;40.45;;;;;;;8.30;90.04;99469.60;1729362;81;20965;-70
2021/12/07 01:03:41;;;;;;;40.10;25.25;;;;;;;8.32;90.05;99468.98;1716065;83;21018;-69
2021/12/07 01:06:23;;;;;;;36.60;23.10;;;;;;;8.32;90.06;99461.09;1716326;83;21012;-70
2021/12/07 01:08:59;;;;;;;25.57;18.15;;;;;;;8.35;90.09;99456.08;1715185;83;21840;-70
2021/12/07 01:25:08;;;;;;;20.97;16.23;;;;;;;8.44;90.14;99453.15;1717717;82;21517;-70
2021/12/07 01:27:34;;;;;;;23.95;17.95;;;;;;;8.45;90.17;99453.50;1726868;82;20946;-70
2021/12/07 01:30:08;;;;;;;21.52;17.00;;;;;;;8.45;90.14;99460.91;1725607;81;20957;-71
2021/12/07 01:59:42;;;;;;;34.50;22.40;;;;;;;8.56;90.31;99444.20;1754511;81;21576;-71
2021/12/07 02:02:11;;;;;;;29.00;20.88;;;;;;;8.56;90.33;99448.98;1758133;81;21004;-71
2021/12/07 02:04:38;;;;;;;32.98;22.90;;;;;;;8.57;90.30;99453.75;1724467;82;22885;-72
2021/12/07 02:07:06;;;;;;;32.80;22.62;;;;;;;8.57;90.32;99455.91;1714036;82;20958;-71
2021/12/07 02:09:35;;;;;;;31.82;22.90;;;;;;;8.58;90.29;99454.11;1713617;83;21029;-71
2021/12/07 02:12:03;;;;;;;31.45;22.75;;;;;;;8.58;90.28;99453.63;1711331;82;21422;-71
2021/12/07 02:14:31;;;;;;;33.48;22.37;;;;;;;8.60;90.24;99455.66;1709217;84;21030;-71
2021/12/07 02:17:01;;;;;;;33.58;26.40;;;;;;;8.60;90.21;99454.34;1714689;82;22153;-72
2021/12/07 02:19:28;;;;;;;37.17;27.98;;;;;;;8.60;90.20;99456.98;1682018;83;21463;-71
2021/12/07 02:21:55;;;;;;;47.08;29.20;;;;;;;8.60;90.15;99458.30;1709147;82;20949;-71
2021/12/07 02:24:24;;;;;;;36.45;25.77;;;;;;;8.60;90.15;99456.15;1704210;82;21412;-71
2021/12/07 02:26:51;;;;;;;38.45;25.05;;;;;;;8.60;90.10;99462.25;1719420;82;21056;-71
2021/12/07 02:29:18;;;;;;;33.28;23.95;;;;;;;8.61;90.12;99460.44;1709365;83;21756;-71
2021/12/07 02:31:46;;;;;;;32.85;24.18;;;;;;;8.62;90.07;99457.33;1710954;82;21009;-71
2021/12/07 02:34:13;;;;;;;37.33;26.57;;;;;;;8.64;90.04;99458.02;1709942;84;20975;-71
2021/12/07 02:36:40;;;;;;;35.73;26.95;;;;;;;8.65;89.99;99457.05;1729053;81;21048;-71
2021/12/07 02:39:10;;;;;;;36.58;27.50;;;;;;;8.63;89.92;99463.77;1734379;81;21492;-71
2021/12/07 02:41:37;;;;;;;39.42;28.62;;;;;;;8.62;89.87;99452.89;1716491;82;21833;-71
2021/12/07 02:44:06;;;;;;;38.98;28.25;;;;;;;8.65;89.86;99447.84;1738114;81;20933;-71
2021/12/07 02:46:36;;;;;;;41.73;28.67;;;;;;;8.66;89.81;99450.82;1732609;81;21146;-71
2021/12/07 02:49:05;;;;;;;38.28;28.05;;;;;;;8.66;89.73;99448.19;1738370;82;21029;-72
2021/12/07 02:51:33;;;;;;;38.98;27.80;;;;;;;8.66;89.66;99450.82;1713599;83;21404;-71
2021/12/07 02:53:59;;;;;;;38.75;26.95;;;;;;;8.64;89.61;99444.37;1714343;83;21796;-70
2021/12/07 02:56:26;;;;;;;33.65;25.55;;;;;;;8.64;89.56;99440.42;1681750;83;21008;-71
2021/12/07 02:59:01;;;;;;;34.80;25.30;;;;;;;8.66;89.54;99435.02;1712070;83;21050;-71
2021/12/07 03:01:27;;;;;;;30.90;23.87;;;;;;;8.66;89.50;99433.71;1716979;82;20974;-71
2021/12/07 03:04:06;;;;;;;33.42;25.08;;;;;;;8.67;89.48;99434.89;1727857;82;20962;-71
2021/12/07 03:06:57;;;;;;;32.63;23.55;;;;;;;8.68;89.46;99436.55;1718722;82;21843;-71
2021/12/07 03:09:55;;;;;;;34.38;25.08;;;;;;;8.68;89.41;99437.87;1722267;82;21574;-71
2021/12/07 03:28:21;;;;;;;41.75;25.17;;;;;;;8.56;89.12;99427.09;1700338;81;20948;-71
2021/12/07 03:30:48;;;;;;;40.15;23.80;;;;;;;8.56;89.13;99441.08;1730421;82;21051;-71
2021/12/07 03:33:15;;;;;;;41.77;24.23;;;;;;;8.54;89.14;99425.08;1688888;83;22797;-71
2021/12/07 03:35:44;;;;;;;35.80;24.35;;;;;;;8.54;89.13;99427.71;1728346;83;21013;-71
2021/12/07 03:38:11;;;;;;;48.73;25.27;;;;;;;8.53;89.14;99416.83;1685087;83;21042;-71
2021/12/07 03:40:39;;;;;;;60.95;24.87;;;;;;;8.53;89.13;99418.98;1713983;83;21435;-71
2021/12/07 03:43:06;;;;;;;59.77;23.92;;;;;;;8.54;89.13;99421.96;1721314;83;21020;-71
2021/12/07 03:45:33;;;;;;;53.10;22.35;;;;;;;8.55;89.12;99424.11;1726790;81;22176;-71
2021/12/07 03:48:02;;;;;;;46.63;22.58;;;;;;;8.55;89.08;99426.74;1705512;83;21509;-71
2021/12/07 03:50:29;;;;;;;64.20;23.27;;;;;;;8.53;89.06;99425.56;1691033;83;20981;-71
2021/12/07 03:52:55;;;;;;;62.33;22.15;;;;;;;8.50;89.04;99428.47;1696734;84;20982;-71
2021/12/07 03:55:23;;;;;;;89.28;21.27;;;;;;;8.49;89.05;99427.25;1700333;83;21037;-71
2021/12/07 03:57:49;;;;;;;84.83;22.52;;;;;;;8.48;89.05;99431.69;1709244;83;22176;-71
2021/12/07 04:00:21;;;;;;;104.05;21.70;;;;;;;8.48;89.06;99430.37;1709847;83;20957;-72
2021/12/07 04:02:51;;;;;;;61.13;21.80;;;;;;;8.47;89.01;99426.08;1689742;83;21135;-71
2021/12/07 04:05:20;;;;;;;63.38;21.10;;;;;;;8.47;89.04;99427.39;1661045;84;21016;-71
2021/12/07 04:07:49;;;;;;;68.20;22.50;;;;;;;8.47;89.05;99423.93;1651654;85;20957;-72
2021/12/07 04:10:18;;;;;;;57.03;23.77;;;;;;;8.47;89.04;99424.77;1675582;84;21806;-71
2021/12/07 04:12:45;;;;;;;62.15;22.85;;;;;;;8.47;89.05;99430.02;1665576;85;20977;-72
2021/12/07 04:15:14;;;;;;;51.10;24.50;;;;;;;8.49;89.05;99424.63;1725556;82;20965;-72
2021/12/07 04:17:41;;;;;;;61.00;24.98;;;;;;;8.50;89.05;99420.57;1714780;82;21505;-71
2021/12/07 04:20:09;;;;;;;69.77;25.97;;;;;;;8.50;89.04;99427.63;1730055;81;21033;-71
2021/12/07 04:22:36;;;;;;;69.27;24.65;;;;;;;8.50;89.07;99428.47;1737116;81;21856;-71
2021/12/07 04:25:06;;;;;;;77.22;25.17;;;;;;;8.52;89.08;99428.33;1721526;82;21330;-71
2021/12/07 04:27:37;;;;;;;103.58;25.65;;;;;;;8.53;89.09;99429.51;1727923;82;21560;-72
2021/12/07 04:30:01;;;;;;;73.87;25.17;;;;;;;8.54;89.06;99427.23;1724036;82;21049;-71
2021/12/07 04:32:28;;;;;;;66.12;26.82;;;;;;;8.54;89.03;99426.39;1732046;82;21479;-71
2021/12/07 04:34:54;;;;;;;91.30;26.27;;;;;;;8.54;89.05;99433.80;1732394;82;22524;-72
2021/12/07 04:37:21;;;;;;;67.67;25.97;;;;;;;8.55;89.06;99430.69;1734029;81;21404;-71
2021/12/07 04:39:47;;;;;;;67.03;25.57;;;;;;;8.56;89.05;99431.87;1715880;83;21020;-71
2021/12/07 04:42:14;;;;;;;113.88;26.60;;;;;;;8.56;89.02;99426.61;1705087;82;20966;-72
2021/12/07 04:44:52;;;;;;;79.77;25.62;;;;;;;8.57;89.01;99421.69;1718407;83;21016;-71
2021/12/07 04:47:19;;;;;;;81.78;24.55;;;;;;;8.58;89.01;99423.35;1715304;81;21784;-71
2021/12/07 04:57:53;;;;;;;131.70;21.95;;;;;;;8.58;88.85;99428.61;1731628;81;20949;-71
2021/12/07 05:00:25;;;;;;;103.42;21.25;;;;;;;8.57;88.85;99426.95;1741118;81;22784;-71
2021/12/07 05:02:58;;;;;;;128.85;21.37;;;;;;;8.57;88.86;99421.69;1742143;81;21043;-71
2021/12/07 05:05:28;;;;;;;139.00;22.35;;;;;;;8.58;88.87;99415.94;1723210;80;21012;-71
2021/12/07 05:07:54;;;;;;;53.38;22.80;;;;;;;8.58;88.90;99426.47;1744975;81;21011;-71
2021/12/07 05:16:29;;;;;;;108.55;23.87;;;;;;;8.60;88.84;99428.51;1732922;81;21063;-70
2021/12/07 05:39:43;;;;;;;39.90;22.87;;;;;;;8.65;88.95;99415.77;1745439;81;22524;-72
2021/12/07 05:42:09;;;;;;;46.28;22.07;;;;;;;8.65;88.95;99408.36;1738195;82;21476;-72
2021/12/07 05:44:36;;;;;;;35.20;22.05;;;;;;;8.64;88.97;99414.11;1744167;80;21313;-71
2021/12/07 05:47:04;;;;;;;32.83;21.45;;;;;;;8.65;89.02;99418.89;1752156;81;21032;-74
2021/12/07 05:49:32;;;;;;;29.87;22.13;;;;;;;8.66;89.06;99423.18;1768513;80;20936;-73
2021/12/07 05:51:58;;;;;;;29.45;21.27;;;;;;;8.68;89.04;99425.19;1738477;81;21788;-69
2021/12/07 05:54:24;;;;;;;33.35;22.45;;;;;;;8.68;89.09;99419.44;1741605;82;20941;-71
2021/12/07 05:56:51;;;;;;;29.82;21.60;;;;;;;8.69;89.08;99419.82;1734287;81;21070;-67
2021/12/07 05:59:17;;;;;;;36.73;25.57;;;;;;;8.71;89.13;99424.46;1727671;81;21035;-71
2021/12/07 06:01:44;;;;;;;35.15;26.30;;;;;;;8.72;89.14;99420.86;1752995;80;21001;-71
2021/12/07 06:04:10;;;;;;;43.17;29.95;;;;;;;8.74;89.15;99412.34;1778242;80;22161;-70
2021/12/07 06:06:39;;;;;;;44.35;30.57;;;;;;;8.74;89.13;99414.14;1759812;80;21000;-71
2021/12/07 06:09:06;;;;;;;47.65;33.73;;;;;;;8.76;89.17;99413.03;1742440;80;20942;-71
2021/12/07 06:11:32;;;;;;;57.13;38.10;;;;;;;8.79;89.22;99411.95;1743457;80;20957;-71
2021/12/07 06:13:59;;;;;;;88.30;55.38;;;;;;;8.80;89.25;99412.30;1743021;82;21016;-72
2021/12/07 06:16:30;;;;;;;84.58;51.73;;;;;;;8.82;89.27;99414.31;1744013;80;21811;-71
2021/12/07 06:18:54;;;;;;;74.77;48.70;;;;;;;8.83;89.27;99422.07;1758999;80;20988;-71
2021/12/07 06:21:20;;;;;;;81.20;50.08;;;;;;;8.85;89.28;99421.93;1747146;81;21035;-71
2021/12/07 06:23:47;;;;;;;77.03;50.90;;;;;;;8.86;89.27;99423.59;1746163;80;21003;-72
2021/12/07 06:26:13;;;;;;;70.92;47.35;;;;;;;8.85;89.28;99425.88;1741593;82;20937;-72
2021/12/07 06:28:40;;;;;;;67.75;46.95;;;;;;;8.86;89.27;99431.49;1744281;81;21497;-71
2021/12/07 06:31:06;;;;;;;61.83;45.40;;;;;;;8.87;89.26;99433.98;1745378;82;21552;-72
2021/12/07 06:33:33;;;;;;;67.90;48.55;;;;;;;8.88;89.27;99436.17;1741034;82;21344;-71
2021/12/07 06:36:01;;;;;;;70.10;47.75;;;;;;;8.89;89.30;99433.88;1748771;80;21454;-70
2021/12/07 06:38:32;;;;;;;68.65;48.63;;;;;;;8.90;89.30;99442.13;1749311;81;21050;-71
2021/12/07 06:40:59;;;;;;;59.03;41.63;;;;;;;8.91;89.32;99433.74;1753281;80;21801;-71
2021/12/07 06:43:26;;;;;;;51.70;38.10;;;;;;;8.90;89.35;99418.42;1743725;80;20967;-71
2021/12/07 06:45:52;;;;;;;45.50;34.10;;;;;;;8.93;89.35;99429.17;1743460;82;20979;-70
2021/12/07 06:48:19;;;;;;;43.68;33.13;;;;;;;8.94;89.34;99432.98;1763727;81;20962;-70
2021/12/07 06:50:45;;;;;;;54.23;37.38;;;;;;;8.95;89.40;99420.16;1750269;81;20952;-71
2021/12/07 06:53:12;;;;;;;53.33;39.75;;;;;;;8.99;89.40;99424.69;1749361;80;22153;-70
2021/12/07 06:55:39;;;;;;;53.98;39.65;;;;;;;9.00;89.43;99419.28;1777968;80;20990;-70
2021/12/07 06:58:05;;;;;;;49.00;36.05;;;;;;;9.02;89.43;99405.48;1778145;80;20946;-71
2021/12/07 07:00:33;;;;;;;59.35;38.38;;;;;;;9.04;89.41;99427.73;1760731;80;21436;-71
2021/12/07 07:02:59;;;;;;;71.02;43.98;;;;;;;9.05;89.43;99442.08;1745173;82;21529;-71
2021/12/07 07:05:26;;;;;;;75.28;43.55;;;;;;;9.05;89.42;99443.41;1736956;82;22537;-71
2021/12/07 07:07:52;;;;;;;50.85;35.92;;;;;;;9.06;89.42;99416.58;1752232;82;20988;-71
2021/12/07 07:10:19;;;;;;;41.83;32.60;;;;;;;9.06;89.41;99388.43;1708601;81;21618;-72
2021/12/07 07:12:46;;;;;;;46.48;33.70;;;;;;;9.06;89.42;99405.55;1726193;83;21240;-72
2021/12/07 07:15:13;;;;;;;59.93;39.80;;;;;;;9.08;89.42;99421.25;1726252;83;21460;-72
2021/12/07 07:17:39;;;;;;;59.85;40.35;;;;;;;9.07;89.45;99416.47;1726205;83;22460;-72
2021/12/07 07:20:09;;;;;;;58.95;41.20;;;;;;;9.08;89.49;99416.81;1722092;82;20946;-72
2021/12/07 07:22:36;;;;;;;58.42;42.15;;;;;;;9.12;89.53;99420.00;1718418;83;20965;-73
2021/12/07 07:25:05;;;;;;;58.38;40.43;;;;;;;9.15;89.52;99417.08;1715990;83;20981;-72
2021/12/07 07:27:33;;;;;;;56.90;40.30;;;;;;;9.18;89.52;99416.83;1733595;81;20973;-73
2021/12/07 07:30:00;;;;;;;59.30;41.50;;;;;;;9.20;89.51;99420.16;1722543;82;21823;-71
2021/12/07 07:32:26;;;;;;;60.20;41.28;;;;;;;9.25;89.50;99420.56;1716707;82;21016;-71
2021/12/07 07:34:52;;;;;;;67.92;47.88;;;;;;;9.26;89.48;99416.95;1718527;83;20961;-71
2021/12/07 07:37:19;;;;;;;80.67;51.42;;;;;;;9.29;89.48;99427.73;1763948;80;21473;-71
2021/12/07 07:39:45;;;;;;;76.90;53.68;;;;;;;9.30;89.46;99428.91;1726410;82;21359;-71
2021/12/07 07:42:12;;;;;;;84.80;57.55;;;;;;;9.31;89.46;99427.09;1726768;83;21777;-71
2021/12/07 07:44:40;;;;;;;85.87;58.52;;;;;;;9.33;89.46;99434.38;1717458;82;20996;-71
2021/12/07 07:47:07;;;;;;;86.65;57.83;;;;;;;9.34;89.46;99430.77;1718052;83;21550;-71
2021/12/07 07:49:33;;;;;;;85.07;57.62;;;;;;;9.36;89.50;99424.87;1678678;85;21387;-72
2021/12/07 07:52:01;;;;;;;86.17;57.33;;;;;;;9.39;89.50;99431.20;1706486;84;21015;-71
2021/12/07 07:54:28;;;;;;;79.30;56.35;;;;;;;9.42;89.51;99430.92;1685747;85;22671;-71
2021/12/07 07:56:55;;;;;;;69.35;49.93;;;;;;;9.44;89.52;99428.97;1702258;82;21468;-71
2021/12/07 07:59:22;;;;;;;70.37;50.38;;;;;;;9.48;89.56;99430.88;1679621;83;21434;-71
2021/12/07 08:01:48;;;;;;;63.17;44.93;;;;;;;9.51;89.58;99432.73;1677972;83;21456;-71
2021/12/07 08:04:15;;;;;;;62.88;41.88;;;;;;;9.53;89.59;99430.78;1670507;85;21391;-71
2021/12/07 08:06:41;;;;;;;52.27;39.70;;;;;;;9.55;89.61;99432.79;1681241;85;22477;-71
2021/12/07 08:09:08;;;;;;;55.48;39.33;;;;;;;9.57;89.60;99434.00;1681164;85;21525;-71
2021/12/07 08:11:36;;;;;;;60.98;41.18;;;;;;;9.59;89.62;99432.88;1681501;84;20988;-71
2021/12/07 08:14:03;;;;;;;58.80;42.73;;;;;;;9.61;89.61;99432.25;1681829;85;20960;-70
2021/12/07 08:16:29;;;;;;;60.65;43.30;;;;;;;9.63;89.60;99426.34;1681478;85;21019;-70
2021/12/07 08:18:56;;;;;;;61.77;42.95;;;;;;;9.65;89.63;99422.25;1700201;83;22306;-71
2021/12/07 08:21:24;;;;;;;55.05;40.92;;;;;;;9.67;89.62;99417.20;1689663;84;21526;-71
2021/12/07 08:23:50;;;;;;;60.58;41.65;;;;;;;9.71;89.61;99418.58;1701098;83;21036;-71
2021/12/07 08:26:20;;;;;;;56.53;40.90;;;;;;;9.72;89.61;99418.92;1683581;84;21538;-71
2021/12/07 08:28:47;;;;;;;52.90;40.03;;;;;;;9.73;89.61;99421.91;1665061;85;21401;-71
2021/12/07 08:31:14;;;;;;;52.13;36.38;;;;;;;9.74;89.60;99418.78;1672776;83;21840;-70
2021/12/07 08:33:40;;;;;;;52.88;38.75;;;;;;;9.74;89.61;99418.78;1663782;85;21589;-68
2021/12/07 08:36:06;;;;;;;55.73;38.83;;;;;;;9.73;89.67;99421.91;1707046;83;20996;-70
2021/12/07 08:38:33;;;;;;;54.77;39.25;;;;;;;9.73;89.67;99410.03;1706079;82;21059;-71
2021/12/07 08:41:01;;;;;;;48.55;37.55;;;;;;;9.74;89.68;99399.00;1717103;82;21004;-71
2021/12/07 08:43:29;;;;;;;53.00;39.05;;;;;;;9.75;89.67;99405.48;1698047;83;22269;-71
2021/12/07 08:45:57;;;;;;;56.73;40.50;;;;;;;9.77;89.66;99405.82;1672070;84;20958;-71
2021/12/07 08:48:24;;;;;;;53.95;41.28;;;;;;;9.78;89.65;99411.44;1692288;82;21045;-70
2021/12/07 08:50:51;;;;;;;50.75;37.95;;;;;;;9.75;89.62;99409.44;1698291;83;21511;-69
2021/12/07 08:53:18;;;;;;;56.55;39.13;;;;;;;9.74;89.59;99410.38;1680197;83;21508;-69
2021/12/07 09:01:19;;;;;;;52.05;38.23;;;;;;;9.67;89.59;99423.80;1731691;82;21017;-69
2021/12/07 09:03:47;;;;;;;50.28;34.90;;;;;;;9.67;89.62;99355.73;1735051;82;21137;-69
2021/12/07 09:06:13;;;;;;;52.95;37.75;;;;;;;9.67;89.63;99367.11;1723835;82;21455;-69
2021/12/07 09:08:40;;;;;;;54.55;38.35;;;;;;;9.67;89.64;99364.47;1728455;82;22196;-71
2021/12/07 09:11:08;;;;;;;65.08;44.13;;;;;;;9.69;89.65;99382.30;1711068;83;21456;-71
2021/12/07 09:13:36;;;;;;;57.58;40.80;;;;;;;9.71;89.65;99386.11;1709421;83;20964;-71
2021/12/07 09:16:04;;;;;;;65.35;45.48;;;;;;;9.71;89.63;99396.66;1689283;83;20981;-71
2021/12/07 09:18:30;;;;;;;61.13;41.53;;;;;;;9.68;89.59;99387.23;1677520;82;21015;-72
2021/12/07 09:20:59;;;;;;;62.73;42.20;;;;;;;9.68;89.59;99362.66;1679963;84;21000;-71
2021/12/07 09:23:25;;;;;;;69.90;46.18;;;;;;;9.69;89.63;99373.06;1655038;85;20957;-71
2021/12/07 09:25:52;;;;;;;82.35;55.40;;;;;;;9.71;89.64;99371.12;1664410;83;21020;-71
2021/12/07 09:28:18;;;;;;;97.85;57.78;;;;;;;9.71;89.63;99363.70;1719841;83;21051;-71
2021/12/07 09:30:51;;;;;;;71.50;47.17;;;;;;;9.74;89.66;99355.00;1709442;82;20953;-71
2021/12/07 09:33:13;;;;;;;61.65;44.85;;;;;;;9.75;89.67;99353.23;1700497;83;21826;-71
2021/12/07 09:35:39;;;;;;;62.58;44.30;;;;;;;9.77;89.68;99354.40;1708617;83;21000;-72
2021/12/07 09:38:06;;;;;;;69.35;46.42;;;;;;;9.80;89.71;99349.66;1680082;84;20967;-72
2021/12/07 09:40:33;;;;;;;64.80;46.45;;;;;;;9.82;89.69;99350.83;1732599;81;21460;-70
2021/12/07 09:42:59;;;;;;;59.53;42.33;;;;;;;9.83;89.68;99348.54;1718105;82;21064;-71
2021/12/07 09:45:30;;;;;;;59.95;41.18;;;;;;;9.85;89.64;99346.13;1665715;84;22191;-71
2021/12/07 09:47:56;;;;;;;60.43;39.15;;;;;;;9.86;89.63;99355.70;1673054;83;20952;-71
2021/12/07 09:50:22;;;;;;;55.83;37.35;;;;;;;9.85;89.57;99348.77;1729530;82;20937;-72
2021/12/07 09:52:50;;;;;;;51.37;36.48;;;;;;;9.85;89.55;99342.66;1715252;82;21064;-71
2021/12/07 09:55:17;;;;;;;54.15;36.13;;;;;;;9.85;89.50;99350.08;1742769;82;20944;-73
2021/12/07 09:57:43;;;;;;;52.80;36.48;;;;;;;9.85;89.50;99346.62;1735584;82;21781;-71
2021/12/07 10:00:12;;;;;;;51.05;36.15;;;;;;;9.85;89.49;99350.57;1715946;82;21439;-69
2021/12/07 10:02:39;;;;;;;53.35;36.15;;;;;;;9.85;89.50;99343.98;1671892;84;21025;-72
2021/12/07 10:05:07;;;;;;;47.15;33.70;;;;;;;9.86;89.52;99347.78;1692525;82;39949;-73
2021/12/07 10:07:37;;;;;;;49.00;33.95;;;;;;;9.87;89.49;99340.22;1673184;83;21491;-70
2021/12/07 10:10:03;;;;;;;53.00;35.30;;;;;;;9.86;89.47;99339.05;1684639;85;22311;-71
2021/12/07 10:12:29;;;;;;;47.00;33.10;;;;;;;9.87;89.43;99340.22;1688235;84;21407;-71
2021/12/07 10:14:55;;;;;;;46.75;32.80;;;;;;;9.88;89.42;99333.13;1685010;85;20976;-71
2021/12/07 10:17:23;;;;;;;48.08;33.73;;;;;;;9.89;89.38;99329.52;1685933;83;21044;-73
2021/12/07 10:19:49;;;;;;;46.53;33.48;;;;;;;9.90;89.39;99326.73;1684356;85;21094;-73
2021/12/07 10:22:21;;;;;;;47.55;31.87;;;;;;;9.91;89.35;99324.44;1702201;83;21810;-73
2021/12/07 10:24:49;;;;;;;46.63;31.75;;;;;;;9.94;89.36;99320.22;1691684;84;20872;-73
2021/12/07 10:27:39;;;;;;;46.02;31.85;;;;;;;9.95;89.34;99319.73;1692283;84;20980;-72
2021/12/07 10:30:09;;;;;;;48.35;31.40;;;;;;;9.95;89.30;99322.36;1700256;83;21428;-72
2021/12/07 10:32:39;;;;;;;41.68;30.80;;;;;;;9.96;89.27;99325.34;1716088;83;20989;-72
2021/12/07 10:35:32;;;;;;;45.00;31.10;;;;;;;9.97;89.30;99325.69;1716141;82;22603;-71
2021/12/07 10:38:15;;;;;;;42.13;29.95;;;;;;;9.98;89.30;99318.94;1714088;82;21012;-73
2021/12/07 10:40:56;;;;;;;42.70;30.27;;;;;;;10.01;89.30;99319.13;1668220;84;21051;-73
2021/12/07 10:43:48;;;;;;;47.55;31.00;;;;;;;10.02;89.30;99316.84;1685758;85;20982;-71
2021/12/07 10:46:41;;;;;;;49.40;30.32;;;;;;;10.03;89.30;99318.00;1681450;85;21000;-72
2021/12/07 10:49:18;;;;;;;34.53;26.10;;;;;;;10.04;89.28;99319.70;1700859;83;21887;-72
2021/12/07 10:52:25;;;;;;;30.88;20.45;;;;;;;10.06;89.27;99317.40;1708619;82;20953;-72
2021/12/07 10:55:19;;;;;;;24.20;19.37;;;;;;;10.00;89.08;99312.20;1693568;84;21142;-71
2021/12/07 10:58:01;;;;;;;23.38;18.57;;;;;;;9.91;88.86;99311.25;1673802;85;20970;-72
2021/12/07 11:00:40;;;;;;;23.90;17.35;;;;;;;9.80;88.79;99310.11;1667957;85;21033;-72
2021/12/07 11:03:12;;;;;;;19.92;17.12;;;;;;;9.72;88.76;99309.49;1707914;83;21855;-72
2021/12/07 11:05:44;;;;;;;23.47;16.90;;;;;;;9.68;88.89;99306.81;1701586;84;21013;-71
2021/12/07 11:08:10;;;;;;;23.52;16.95;;;;;;;9.66;88.78;99310.08;1670264;83;21459;-72
2021/12/07 11:10:46;;;;;;;21.27;16.62;;;;;;;9.67;88.64;99311.73;1656200;85;21037;-72
2021/12/07 11:13:22;;;;;;;20.57;15.45;;;;;;;9.67;88.54;99305.64;1668190;86;20966;-71
2021/12/07 11:15:57;;;;;;;25.45;18.60;;;;;;;9.62;88.45;99306.05;1677378;84;22741;-71
2021/12/07 11:18:35;;;;;;;34.78;22.87;;;;;;;9.58;88.33;99305.17;1647219;85;21585;-72
2021/12/07 11:21:14;;;;;;;37.20;23.38;;;;;;;9.56;88.30;99308.44;1679799;85;21380;-73
2021/12/07 11:23:51;;;;;;;35.63;25.12;;;;;;;9.54;88.28;99311.19;1681314;85;21022;-73
2021/12/07 11:31:52;;;;;;;42.08;29.60;;;;;;;9.56;88.32;99311.91;1675411;85;20969;-72
2021/12/07 11:34:22;;;;;;;39.03;25.70;;;;;;;9.60;88.42;99311.12;1675317;85;21511;-72
2021/12/07 11:36:56;;;;;;;32.20;22.00;;;;;;;9.65;88.64;99301.83;1682237;85;21448;-73
2021/12/07 11:39:50;;;;;;;34.88;22.58;;;;;;;9.77;88.95;99302.98;1685801;84;20967;-72
2021/12/07 11:42:32;;;;;;;32.57;21.10;;;;;;;9.87;89.15;99294.55;1697181;83;21798;-72
2021/12/07 11:45:15;;;;;;;32.00;21.70;;;;;;;9.96;89.23;99296.33;1707440;82;21515;-72
2021/12/07 11:47:49;;;;;;;;;;;;;;;10.02;89.32;99291.77;1709995;83;21025;-72
2021/12/07 11:50:27;;;;;;;31.37;22.00;;;;;;;10.08;89.37;99291.20;1716010;82;21073;-73
2021/12/07 11:53:00;;;;;;;30.85;21.68;;;;;;;10.12;89.40;99289.92;1714409;83;20968;-72
2021/12/07 11:55:28;;;;;;;32.23;24.20;;;;;;;10.14;89.42;99284.04;1714440;83;21819;-73
2021/12/07 11:57:55;;;;;;;31.02;23.45;;;;;;;10.19;89.45;99290.19;1714536;83;21111;-73
2021/12/07 12:00:29;;;;;;;31.23;24.98;;;;;;;10.22;89.42;99285.95;1742244;81;21009;-72
2021/12/07 12:02:56;;;;;;;33.92;25.90;;;;;;;10.23;89.40;99287.16;1723026;82;21432;-73
2021/12/07 12:05:22;;;;;;;31.42;24.35;;;;;;;10.26;89.38;99286.86;1726798;82;21435;-73
2021/12/07 12:07:49;;;;;;;36.83;25.92;;;;;;;10.28;89.33;99282.74;1731092;83;22441;-73
2021/12/07 12:10:17;;;;;;;36.33;26.62;;;;;;;10.29;89.30;99282.59;1730523;83;20934;-73
2021/12/07 12:13:24;;;;;;;34.95;26.17;;;;;;;10.32;89.25;99278.82;1685555;84;21444;-73
2021/12/07 12:16:18;;;;;;;35.17;27.17;;;;;;;10.33;89.25;99281.83;1685004;83;20981;-73
2021/12/07 12:19:22;;;;;;;36.00;28.75;;;;;;;10.35;89.21;99284.32;1746471;82;21013;-73
2021/12/07 12:22:12;;;;;;;35.70;27.50;;;;;;;10.36;89.19;99277.56;1710111;83;21867;-73
2021/12/07 12:24:49;;;;;;;33.10;27.70;;;;;;;10.38;89.13;99269.01;1716414;83;21044;-74
2021/12/07 12:27:18;;;;;;;35.28;29.52;;;;;;;10.38;89.11;99276.92;1682957;83;20976;-73
2021/12/07 12:29:49;;;;;;;37.45;28.75;;;;;;;10.40;89.07;99276.77;1694029;84;21009;-73
2021/12/07 12:32:33;;;;;;;33.30;29.12;;;;;;;10.42;89.05;99277.45;1673669;83;21001;-74
2021/12/07 12:35:00;;;;;;;39.75;30.35;;;;;;;10.46;88.91;99278.34;1719215;83;22007;-74
2021/12/07 12:37:29;;;;;;;32.10;26.73;;;;;;;10.43;88.90;99273.38;1719312;83;21138;-73
2021/12/07 12:40:09;;;;;;;33.88;24.90;;;;;;;10.44;88.87;99277.67;1717242;83;20996;-74
2021/12/07 12:42:43;;;;;;;35.13;26.12;;;;;;;10.44;88.83;99274.20;1716591;83;20989;-72
2021/12/07 12:45:35;;;;;;;37.30;27.55;;;;;;;10.46;88.77;99284.11;1716833;82;20993;-73
2021/12/07 12:48:12;;;;;;;38.95;29.00;;;;;;;10.45;88.71;99278.01;1716883;83;21876;-73
2021/12/07 12:50:49;;;;;;;51.88;33.02;;;;;;;10.47;88.69;99285.77;1705339;81;21049;-72
2021/12/07 12:53:31;;;;;;;60.33;35.65;;;;;;;10.47;88.62;99291.88;1703745;83;20985;-72
2021/12/07 12:56:10;;;;;;;63.50;38.55;;;;;;;10.47;88.59;99295.84;1715151;83;21099;-73
2021/12/07 12:58:42;;;;;;;56.00;34.98;;;;;;;10.48;88.53;99282.16;1715558;83;21440;-73
2021/12/07 13:01:13;;;;;;;48.70;33.58;;;;;;;10.49;88.46;99290.41;1695285;83;22441;-73
2021/12/07 13:03:53;;;;;;;51.77;34.75;;;;;;;10.49;88.42;99295.69;1686435;85;21490;-74
2021/12/07 13:06:46;;;;;;;55.03;32.98;;;;;;;10.50;88.41;99296.03;1686661;83;21008;-72
2021/12/07 13:09:23;;;;;;;51.55;25.00;;;;;;;10.50;88.36;99296.86;1710478;83;21001;-72
2021/12/07 13:12:14;;;;;;;46.18;31.25;;;;;;;10.45;88.18;99304.90;1648737;85;21025;-71
2021/12/07 13:14:52;;;;;;;50.15;34.30;;;;;;;10.25;87.63;99304.98;1714532;83;21818;-73
2021/12/07 13:17:41;;;;;;;37.93;27.60;;;;;;;9.94;86.93;99304.84;1713515;83;21416;-72
2021/12/07 13:20:29;;;;;;;41.10;28.35;;;;;;;9.67;86.43;99301.68;1676255;83;21036;-72
2021/12/07 13:23:07;;;;;;;37.98;28.05;;;;;;;9.40;86.05;99307.69;1655947;86;20981;-73